sensor_id;sensor_type;location;lat;lon;timestamp;temperature;humidity
5868;DHT22;2960;49.142;7.768;2023-05-02T00:01:24;12.50;61.50
5868;DHT22;2960;49.142;7.768;2023-05-02T00:03:51;12.40;61.40
5868;DHT22;2960;49.142;7.768;2023-05-02T00:06:18;12.40;61.50
5868;DHT22;2960;49.142;7.768;2023-05-02T00:08:48;12.40;61.50
5868;DHT22;2960;49.142;7.768;2023-05-02T00:11:15;12.30;61.40
5868;DHT22;2960;49.142;7.768;2023-05-02T00:13:42;12.30;61.40
5868;DHT22;2960;49.142;7.768;2023-05-02T00:16:09;12.30;61.50
5868;DHT22;2960;49.142;7.768;2023-05-02T00:18:38;12.30;61.50
5868;DHT22;2960;49.142;7.768;2023-05-02T00:21:05;12.20;61.40
5868;DHT22;2960;49.142;7.768;2023-05-02T00:23:34;12.20;62.20
5868;DHT22;2960;49.142;7.768;2023-05-02T00:26:01;12.20;61.60
5868;DHT22;2960;49.142;7.768;2023-05-02T00:28:28;12.20;61.60
5868;DHT22;2960;49.142;7.768;2023-05-02T00:30:55;12.10;61.40
5868;DHT22;2960;49.142;7.768;2023-05-02T00:33:23;12.10;61.40
5868;DHT22;2960;49.142;7.768;2023-05-02T00:35:52;12.10;61.30
5868;DHT22;2960;49.142;7.768;2023-05-02T00:38:19;12.10;61.30
5868;DHT22;2960;49.142;7.768;2023-05-02T00:40:47;12.00;61.20
5868;DHT22;2960;49.142;7.768;2023-05-02T00:43:16;12.00;61.10
5868;DHT22;2960;49.142;7.768;2023-05-02T00:45:44;12.00;61.10
5868;DHT22;2960;49.142;7.768;2023-05-02T00:48:12;12.00;61.10
5868;DHT22;2960;49.142;7.768;2023-05-02T00:50:40;12.00;61.10
5868;DHT22;2960;49.142;7.768;2023-05-02T00:53:09;11.90;61.80
5868;DHT22;2960;49.142;7.768;2023-05-02T00:55:37;11.90;61.00
5868;DHT22;2960;49.142;7.768;2023-05-02T00:58:06;11.90;61.10
5868;DHT22;2960;49.142;7.768;2023-05-02T01:00:52;11.80;61.00
5868;DHT22;2960;49.142;7.768;2023-05-02T01:03:35;11.80;61.10
5868;DHT22;2960;49.142;7.768;2023-05-02T01:06:14;11.70;61.20
5868;DHT22;2960;49.142;7.768;2023-05-02T01:08:59;11.70;61.40
5868;DHT22;2960;49.142;7.768;2023-05-02T01:11:46;11.70;61.50
5868;DHT22;2960;49.142;7.768;2023-05-02T01:14:15;11.60;61.30
5868;DHT22;2960;49.142;7.768;2023-05-02T01:16:44;11.50;62.10
5868;DHT22;2960;49.142;7.768;2023-05-02T01:19:20;11.50;61.40
5868;DHT22;2960;49.142;7.768;2023-05-02T01:21:51;11.50;61.50
5868;DHT22;2960;49.142;7.768;2023-05-02T01:24:25;11.50;61.50
5868;DHT22;2960;49.142;7.768;2023-05-02T01:27:00;11.40;61.40
5868;DHT22;2960;49.142;7.768;2023-05-02T01:29:39;11.40;61.50
5868;DHT22;2960;49.142;7.768;2023-05-02T01:32:08;11.40;61.50
5868;DHT22;2960;49.142;7.768;2023-05-02T01:34:39;11.40;61.50
5868;DHT22;2960;49.142;7.768;2023-05-02T01:37:12;11.30;61.30
5868;DHT22;2960;49.142;7.768;2023-05-02T01:39:40;11.30;61.30
5868;DHT22;2960;49.142;7.768;2023-05-02T01:42:10;11.30;61.30
5868;DHT22;2960;49.142;7.768;2023-05-02T01:44:40;11.30;61.30
5868;DHT22;2960;49.142;7.768;2023-05-02T01:47:09;11.30;61.20
5868;DHT22;2960;49.142;7.768;2023-05-02T01:49:37;11.30;61.20
5868;DHT22;2960;49.142;7.768;2023-05-02T01:52:06;11.20;61.10
5868;DHT22;2960;49.142;7.768;2023-05-02T01:54:36;11.20;61.20
5868;DHT22;2960;49.142;7.768;2023-05-02T01:57:06;11.20;62.00
5868;DHT22;2960;49.142;7.768;2023-05-02T01:59:36;11.10;61.20
5868;DHT22;2960;49.142;7.768;2023-05-02T02:02:13;11.10;61.20
5868;DHT22;2960;49.142;7.768;2023-05-02T02:04:40;11.00;61.30
5868;DHT22;2960;49.142;7.768;2023-05-02T02:07:10;11.00;61.50
5868;DHT22;2960;49.142;7.768;2023-05-02T02:09:39;11.00;61.50
5868;DHT22;2960;49.142;7.768;2023-05-02T02:12:11;10.90;61.40
5868;DHT22;2960;49.142;7.768;2023-05-02T02:14:42;10.90;61.50
5868;DHT22;2960;49.142;7.768;2023-05-02T02:17:15;10.90;61.60
5868;DHT22;2960;49.142;7.768;2023-05-02T02:19:48;10.80;61.60
5868;DHT22;2960;49.142;7.768;2023-05-02T02:22:20;10.80;61.60
5868;DHT22;2960;49.142;7.768;2023-05-02T02:24:50;10.70;61.60
5868;DHT22;2960;49.142;7.768;2023-05-02T02:27:19;10.70;61.60
5868;DHT22;2960;49.142;7.768;2023-05-02T02:29:47;10.70;61.70
5868;DHT22;2960;49.142;7.768;2023-05-02T02:32:15;10.60;61.60
5868;DHT22;2960;49.142;7.768;2023-05-02T02:34:42;10.60;61.80
5868;DHT22;2960;49.142;7.768;2023-05-02T02:37:14;10.60;61.80
5868;DHT22;2960;49.142;7.768;2023-05-02T02:39:50;10.60;61.80
5868;DHT22;2960;49.142;7.768;2023-05-02T02:42:26;10.60;61.70
5868;DHT22;2960;49.142;7.768;2023-05-02T02:45:08;10.60;61.60
5868;DHT22;2960;49.142;7.768;2023-05-02T02:47:48;10.60;61.60
5868;DHT22;2960;49.142;7.768;2023-05-02T02:50:24;10.60;61.60
5868;DHT22;2960;49.142;7.768;2023-05-02T02:52:59;10.60;61.60
5868;DHT22;2960;49.142;7.768;2023-05-02T02:55:37;10.60;61.60
5868;DHT22;2960;49.142;7.768;2023-05-02T02:58:17;10.60;61.60
5868;DHT22;2960;49.142;7.768;2023-05-02T03:00:49;10.50;61.40
5868;DHT22;2960;49.142;7.768;2023-05-02T03:03:20;10.50;62.20
5868;DHT22;2960;49.142;7.768;2023-05-02T03:05:49;10.50;61.50
5868;DHT22;2960;49.142;7.768;2023-05-02T03:08:17;10.50;61.50
5868;DHT22;2960;49.142;7.768;2023-05-02T03:10:44;10.50;61.50
5868;DHT22;2960;49.142;7.768;2023-05-02T03:13:11;10.50;61.50
5868;DHT22;2960;49.142;7.768;2023-05-02T03:16:17;10.50;61.50
5868;DHT22;2960;49.142;7.768;2023-05-02T03:18:56;10.50;61.50
5868;DHT22;2960;49.142;7.768;2023-05-02T03:21:23;10.40;61.60
5868;DHT22;2960;49.142;7.768;2023-05-02T03:23:50;10.40;62.50
5868;DHT22;2960;49.142;7.768;2023-05-02T03:26:17;10.40;61.60
5868;DHT22;2960;49.142;7.768;2023-05-02T03:28:45;10.40;61.60
5868;DHT22;2960;49.142;7.768;2023-05-02T03:31:12;10.40;61.60
5868;DHT22;2960;49.142;7.768;2023-05-02T03:33:41;10.40;61.60
5868;DHT22;2960;49.142;7.768;2023-05-02T03:36:09;10.30;61.50
5868;DHT22;2960;49.142;7.768;2023-05-02T03:38:36;10.30;62.40
5868;DHT22;2960;49.142;7.768;2023-05-02T03:41:04;10.30;61.80
5868;DHT22;2960;49.142;7.768;2023-05-02T03:43:31;10.20;61.80
5868;DHT22;2960;49.142;7.768;2023-05-02T03:46:04;10.20;62.70
5868;DHT22;2960;49.142;7.768;2023-05-02T03:48:32;10.20;62.00
5868;DHT22;2960;49.142;7.768;2023-05-02T03:51:01;10.20;62.00
5868;DHT22;2960;49.142;7.768;2023-05-02T03:53:29;10.20;62.00
5868;DHT22;2960;49.142;7.768;2023-05-02T03:55:57;10.20;62.00
5868;DHT22;2960;49.142;7.768;2023-05-02T03:58:24;10.20;62.00
5868;DHT22;2960;49.142;7.768;2023-05-02T04:00:52;10.20;62.70
5868;DHT22;2960;49.142;7.768;2023-05-02T04:03:19;10.20;62.00
5868;DHT22;2960;49.142;7.768;2023-05-02T04:05:47;10.20;62.00
5868;DHT22;2960;49.142;7.768;2023-05-02T04:08:17;10.20;62.00
5868;DHT22;2960;49.142;7.768;2023-05-02T04:10:44;10.20;62.20
5868;DHT22;2960;49.142;7.768;2023-05-02T04:13:11;10.20;62.30
5868;DHT22;2960;49.142;7.768;2023-05-02T04:15:38;10.20;62.30
5868;DHT22;2960;49.142;7.768;2023-05-02T04:18:06;10.20;62.40
5868;DHT22;2960;49.142;7.768;2023-05-02T04:20:33;10.20;62.30
5868;DHT22;2960;49.142;7.768;2023-05-02T04:23:00;10.20;62.40
5868;DHT22;2960;49.142;7.768;2023-05-02T04:25:29;10.20;62.40
5868;DHT22;2960;49.142;7.768;2023-05-02T04:27:56;10.20;62.40
5868;DHT22;2960;49.142;7.768;2023-05-02T04:30:24;10.20;62.40
5868;DHT22;2960;49.142;7.768;2023-05-02T04:32:51;10.20;62.40
5868;DHT22;2960;49.142;7.768;2023-05-02T04:35:18;10.20;62.40
5868;DHT22;2960;49.142;7.768;2023-05-02T04:37:46;10.20;62.40
5868;DHT22;2960;49.142;7.768;2023-05-02T04:40:13;10.20;62.40
5868;DHT22;2960;49.142;7.768;2023-05-02T04:42:42;10.20;62.40
5868;DHT22;2960;49.142;7.768;2023-05-02T04:45:09;10.20;62.50
5868;DHT22;2960;49.142;7.768;2023-05-02T04:47:36;10.20;62.50
5868;DHT22;2960;49.142;7.768;2023-05-02T04:50:05;10.10;62.50
5868;DHT22;2960;49.142;7.768;2023-05-02T04:52:34;10.10;62.70
5868;DHT22;2960;49.142;7.768;2023-05-02T04:55:01;10.10;62.80
5868;DHT22;2960;49.142;7.768;2023-05-02T04:57:28;10.00;62.90
5868;DHT22;2960;49.142;7.768;2023-05-02T04:59:57;10.00;63.00
5868;DHT22;2960;49.142;7.768;2023-05-02T05:02:24;10.00;63.00
5868;DHT22;2960;49.142;7.768;2023-05-02T05:04:51;10.00;63.00
5868;DHT22;2960;49.142;7.768;2023-05-02T05:07:18;10.00;63.20
5868;DHT22;2960;49.142;7.768;2023-05-02T05:09:45;9.90;64.40
5868;DHT22;2960;49.142;7.768;2023-05-02T05:12:12;9.90;64.40
5868;DHT22;2960;49.142;7.768;2023-05-02T05:14:39;9.90;64.50
5868;DHT22;2960;49.142;7.768;2023-05-02T05:17:08;9.90;64.60
5868;DHT22;2960;49.142;7.768;2023-05-02T05:19:35;9.90;64.60
5868;DHT22;2960;49.142;7.768;2023-05-02T05:22:02;9.90;64.70
5868;DHT22;2960;49.142;7.768;2023-05-02T05:24:29;10.00;63.70
5868;DHT22;2960;49.142;7.768;2023-05-02T05:26:56;10.00;63.60
5868;DHT22;2960;49.142;7.768;2023-05-02T05:29:23;10.00;63.60
5868;DHT22;2960;49.142;7.768;2023-05-02T05:31:50;10.00;63.70
5868;DHT22;2960;49.142;7.768;2023-05-02T05:34:19;10.00;63.80
5868;DHT22;2960;49.142;7.768;2023-05-02T05:36:46;10.10;63.90
5868;DHT22;2960;49.142;7.768;2023-05-02T05:39:13;10.10;63.90
5868;DHT22;2960;49.142;7.768;2023-05-02T05:41:41;10.20;63.90
5868;DHT22;2960;49.142;7.768;2023-05-02T05:44:08;10.30;63.90
5868;DHT22;2960;49.142;7.768;2023-05-02T05:46:35;10.30;63.80
5868;DHT22;2960;49.142;7.768;2023-05-02T05:49:02;10.40;63.80
5868;DHT22;2960;49.142;7.768;2023-05-02T05:51:31;10.50;63.80
5868;DHT22;2960;49.142;7.768;2023-05-02T05:53:58;10.60;63.80
5868;DHT22;2960;49.142;7.768;2023-05-02T05:56:25;10.70;63.90
5868;DHT22;2960;49.142;7.768;2023-05-02T05:58:52;10.70;63.80
5868;DHT22;2960;49.142;7.768;2023-05-02T06:01:20;10.80;63.90
5868;DHT22;2960;49.142;7.768;2023-05-02T06:03:47;10.90;63.90
5868;DHT22;2960;49.142;7.768;2023-05-02T06:06:15;11.00;64.00
5868;DHT22;2960;49.142;7.768;2023-05-02T06:08:43;11.10;64.00
5868;DHT22;2960;49.142;7.768;2023-05-02T06:11:13;11.20;64.00
5868;DHT22;2960;49.142;7.768;2023-05-02T06:13:40;11.30;64.00
5868;DHT22;2960;49.142;7.768;2023-05-02T06:16:07;11.40;64.00
5868;DHT22;2960;49.142;7.768;2023-05-02T06:18:34;11.50;64.00
5868;DHT22;2960;49.142;7.768;2023-05-02T06:21:05;11.50;64.00
5868;DHT22;2960;49.142;7.768;2023-05-02T06:23:32;11.60;64.00
5868;DHT22;2960;49.142;7.768;2023-05-02T06:26:01;11.70;64.00
5868;DHT22;2960;49.142;7.768;2023-05-02T06:28:30;11.80;64.10
5868;DHT22;2960;49.142;7.768;2023-05-02T06:30:58;11.90;64.20
5868;DHT22;2960;49.142;7.768;2023-05-02T06:33:25;12.00;64.20
5868;DHT22;2960;49.142;7.768;2023-05-02T06:35:53;12.10;64.20
5868;DHT22;2960;49.142;7.768;2023-05-02T06:38:20;12.10;64.10
5868;DHT22;2960;49.142;7.768;2023-05-02T06:40:48;12.20;64.20
5868;DHT22;2960;49.142;7.768;2023-05-02T06:43:17;12.30;64.40
5868;DHT22;2960;49.142;7.768;2023-05-02T06:45:44;12.40;64.60
5868;DHT22;2960;49.142;7.768;2023-05-02T06:48:11;12.40;64.70
5868;DHT22;2960;49.142;7.768;2023-05-02T06:50:39;12.60;64.90
5868;DHT22;2960;49.142;7.768;2023-05-02T06:53:06;12.60;65.00
5868;DHT22;2960;49.142;7.768;2023-05-02T06:55:34;12.80;65.20
5868;DHT22;2960;49.142;7.768;2023-05-02T06:58:01;12.90;65.20
5868;DHT22;2960;49.142;7.768;2023-05-02T07:00:29;13.00;65.20
5868;DHT22;2960;49.142;7.768;2023-05-02T07:02:56;13.00;65.10
5868;DHT22;2960;49.142;7.768;2023-05-02T07:05:23;13.10;65.20
5868;DHT22;2960;49.142;7.768;2023-05-02T07:07:51;13.20;65.20
5868;DHT22;2960;49.142;7.768;2023-05-02T07:10:18;13.30;65.20
5868;DHT22;2960;49.142;7.768;2023-05-02T07:12:45;13.40;65.20
5868;DHT22;2960;49.142;7.768;2023-05-02T07:15:14;13.40;65.30
5868;DHT22;2960;49.142;7.768;2023-05-02T07:17:43;13.50;65.30
5868;DHT22;2960;49.142;7.768;2023-05-02T07:20:12;13.50;65.30
5868;DHT22;2960;49.142;7.768;2023-05-02T07:22:42;13.60;65.30
5868;DHT22;2960;49.142;7.768;2023-05-02T07:25:09;13.70;65.40
5868;DHT22;2960;49.142;7.768;2023-05-02T07:27:36;13.70;65.30
5868;DHT22;2960;49.142;7.768;2023-05-02T07:30:04;13.80;65.30
5868;DHT22;2960;49.142;7.768;2023-05-02T07:32:32;13.90;65.20
5868;DHT22;2960;49.142;7.768;2023-05-02T07:35:00;14.00;65.20
5868;DHT22;2960;49.142;7.768;2023-05-02T07:37:31;14.10;65.00
5868;DHT22;2960;49.142;7.768;2023-05-02T07:39:59;14.10;64.80
5868;DHT22;2960;49.142;7.768;2023-05-02T07:42:28;14.20;64.80
5868;DHT22;2960;49.142;7.768;2023-05-02T07:44:55;14.30;64.80
5868;DHT22;2960;49.142;7.768;2023-05-02T07:47:22;14.40;64.70
5868;DHT22;2960;49.142;7.768;2023-05-02T07:49:51;14.50;64.50
5868;DHT22;2960;49.142;7.768;2023-05-02T07:52:20;14.60;64.40
5868;DHT22;2960;49.142;7.768;2023-05-02T07:54:47;14.80;64.40
5868;DHT22;2960;49.142;7.768;2023-05-02T07:57:18;14.90;64.20
5868;DHT22;2960;49.142;7.768;2023-05-02T07:59:45;15.00;64.10
5868;DHT22;2960;49.142;7.768;2023-05-02T08:02:12;15.10;63.80
5868;DHT22;2960;49.142;7.768;2023-05-02T08:04:42;15.20;63.60
5868;DHT22;2960;49.142;7.768;2023-05-02T08:07:09;15.30;63.30
5868;DHT22;2960;49.142;7.768;2023-05-02T08:09:37;15.30;63.20
5868;DHT22;2960;49.142;7.768;2023-05-02T08:12:04;15.40;63.10
5868;DHT22;2960;49.142;7.768;2023-05-02T08:14:32;15.50;63.10
5868;DHT22;2960;49.142;7.768;2023-05-02T08:16:59;15.50;62.90
5868;DHT22;2960;49.142;7.768;2023-05-02T08:19:26;15.60;62.70
5868;DHT22;2960;49.142;7.768;2023-05-02T08:21:54;15.60;62.60
5868;DHT22;2960;49.142;7.768;2023-05-02T08:24:21;15.70;62.20
5868;DHT22;2960;49.142;7.768;2023-05-02T08:26:49;15.60;61.80
5868;DHT22;2960;49.142;7.768;2023-05-02T08:29:16;15.60;61.70
5868;DHT22;2960;49.142;7.768;2023-05-02T08:31:43;15.60;62.60
5868;DHT22;2960;49.142;7.768;2023-05-02T08:34:11;15.70;62.70
5868;DHT22;2960;49.142;7.768;2023-05-02T08:36:38;15.70;61.90
5868;DHT22;2960;49.142;7.768;2023-05-02T08:39:05;15.80;61.90
5868;DHT22;2960;49.142;7.768;2023-05-02T08:41:34;15.90;61.70
5868;DHT22;2960;49.142;7.768;2023-05-02T08:44:05;16.00;61.60
5868;DHT22;2960;49.142;7.768;2023-05-02T08:46:34;16.00;61.50
5868;DHT22;2960;49.142;7.768;2023-05-02T08:49:02;16.10;61.40
5868;DHT22;2960;49.142;7.768;2023-05-02T08:51:29;16.20;61.30
5868;DHT22;2960;49.142;7.768;2023-05-02T08:53:58;16.30;61.20
5868;DHT22;2960;49.142;7.768;2023-05-02T08:56:27;16.40;61.10
5868;DHT22;2960;49.142;7.768;2023-05-02T08:58:57;16.40;60.80
5868;DHT22;2960;49.142;7.768;2023-05-02T09:01:29;16.50;60.70
5868;DHT22;2960;49.142;7.768;2023-05-02T09:03:56;16.50;60.60
5868;DHT22;2960;49.142;7.768;2023-05-02T09:06:25;16.60;60.50
5868;DHT22;2960;49.142;7.768;2023-05-02T09:08:53;16.70;60.60
5868;DHT22;2960;49.142;7.768;2023-05-02T09:11:20;16.70;60.40
5868;DHT22;2960;49.142;7.768;2023-05-02T09:13:48;16.80;60.70
5868;DHT22;2960;49.142;7.768;2023-05-02T09:16:18;16.80;59.80
5868;DHT22;2960;49.142;7.768;2023-05-02T09:18:49;16.80;59.70
5868;DHT22;2960;49.142;7.768;2023-05-02T09:21:20;16.80;59.70
5868;DHT22;2960;49.142;7.768;2023-05-02T09:23:50;16.90;59.80
5868;DHT22;2960;49.142;7.768;2023-05-02T09:26:19;16.90;59.60
5868;DHT22;2960;49.142;7.768;2023-05-02T09:28:48;17.00;59.50
5868;DHT22;2960;49.142;7.768;2023-05-02T09:31:18;17.10;59.40
5868;DHT22;2960;49.142;7.768;2023-05-02T09:33:47;17.20;59.40
5868;DHT22;2960;49.142;7.768;2023-05-02T09:36:16;17.30;59.70
5868;DHT22;2960;49.142;7.768;2023-05-02T09:38:46;17.40;58.90
5868;DHT22;2960;49.142;7.768;2023-05-02T09:41:15;17.60;58.80
5868;DHT22;2960;49.142;7.768;2023-05-02T09:43:54;17.70;58.70
5868;DHT22;2960;49.142;7.768;2023-05-02T09:46:21;17.70;58.50
5868;DHT22;2960;49.142;7.768;2023-05-02T09:48:53;17.70;58.90
5868;DHT22;2960;49.142;7.768;2023-05-02T09:51:22;17.70;58.20
5868;DHT22;2960;49.142;7.768;2023-05-02T09:53:50;17.70;58.10
5868;DHT22;2960;49.142;7.768;2023-05-02T09:56:18;17.80;58.20
5868;DHT22;2960;49.142;7.768;2023-05-02T09:58:45;17.80;58.00
5868;DHT22;2960;49.142;7.768;2023-05-02T10:01:16;17.90;57.70
5868;DHT22;2960;49.142;7.768;2023-05-02T10:03:46;17.90;57.10
5868;DHT22;2960;49.142;7.768;2023-05-02T10:06:15;17.90;57.00
5868;DHT22;2960;49.142;7.768;2023-05-02T10:08:44;17.80;56.90
5868;DHT22;2960;49.142;7.768;2023-05-02T10:11:12;17.80;57.30
5868;DHT22;2960;49.142;7.768;2023-05-02T10:13:40;17.70;56.80
5868;DHT22;2960;49.142;7.768;2023-05-02T10:16:11;17.70;56.80
5868;DHT22;2960;49.142;7.768;2023-05-02T10:18:45;17.70;56.80
5868;DHT22;2960;49.142;7.768;2023-05-02T10:21:18;17.70;56.80
5868;DHT22;2960;49.142;7.768;2023-05-02T10:23:52;17.70;56.80
5868;DHT22;2960;49.142;7.768;2023-05-02T10:26:20;17.70;56.50
5868;DHT22;2960;49.142;7.768;2023-05-02T10:28:48;17.70;56.60
5868;DHT22;2960;49.142;7.768;2023-05-02T10:31:17;17.70;56.60
5868;DHT22;2960;49.142;7.768;2023-05-02T10:33:45;17.80;56.60
5868;DHT22;2960;49.142;7.768;2023-05-02T10:36:14;17.80;56.40
5868;DHT22;2960;49.142;7.768;2023-05-02T10:38:46;17.90;56.20
5868;DHT22;2960;49.142;7.768;2023-05-02T10:41:15;17.90;56.60
5868;DHT22;2960;49.142;7.768;2023-05-02T10:43:46;17.90;55.90
5868;DHT22;2960;49.142;7.768;2023-05-02T10:46:30;17.90;55.70
5868;DHT22;2960;49.142;7.768;2023-05-02T10:49:03;17.90;55.70
5868;DHT22;2960;49.142;7.768;2023-05-02T10:51:33;17.90;55.60
5868;DHT22;2960;49.142;7.768;2023-05-02T10:54:21;17.90;55.80
5868;DHT22;2960;49.142;7.768;2023-05-02T10:57:02;17.90;55.70
5868;DHT22;2960;49.142;7.768;2023-05-02T10:59:31;17.90;55.70
5868;DHT22;2960;49.142;7.768;2023-05-02T11:01:59;17.80;55.50
5868;DHT22;2960;49.142;7.768;2023-05-02T11:04:57;17.80;55.50
5868;DHT22;2960;49.142;7.768;2023-05-02T11:07:27;17.80;55.10
5868;DHT22;2960;49.142;7.768;2023-05-02T11:10:25;17.80;55.00
5868;DHT22;2960;49.142;7.768;2023-05-02T11:12:54;17.80;55.20
5868;DHT22;2960;49.142;7.768;2023-05-02T11:15:54;17.80;55.20
5868;DHT22;2960;49.142;7.768;2023-05-02T11:18:22;17.80;55.10
5868;DHT22;2960;49.142;7.768;2023-05-02T11:20:49;17.70;54.90
5868;DHT22;2960;49.142;7.768;2023-05-02T11:23:22;17.80;55.10
5868;DHT22;2960;49.142;7.768;2023-05-02T11:25:53;17.90;55.90
5868;DHT22;2960;49.142;7.768;2023-05-02T11:28:43;18.00;55.20
5868;DHT22;2960;49.142;7.768;2023-05-02T11:34:42;18.40;55.00
5868;DHT22;2960;49.142;7.768;2023-05-02T11:37:11;18.60;54.70
5868;DHT22;2960;49.142;7.768;2023-05-02T11:39:40;18.70;54.20
5868;DHT22;2960;49.142;7.768;2023-05-02T11:42:08;18.80;53.90
5868;DHT22;2960;49.142;7.768;2023-05-02T11:44:56;18.90;53.90
5868;DHT22;2960;49.142;7.768;2023-05-02T11:47:27;19.10;54.00
5868;DHT22;2960;49.142;7.768;2023-05-02T11:50:03;19.30;53.80
5868;DHT22;2960;49.142;7.768;2023-05-02T11:52:36;19.50;53.60
5868;DHT22;2960;49.142;7.768;2023-05-02T11:55:07;19.60;53.40
5868;DHT22;2960;49.142;7.768;2023-05-02T11:57:38;19.80;53.20
5868;DHT22;2960;49.142;7.768;2023-05-02T12:00:07;19.90;52.80
5868;DHT22;2960;49.142;7.768;2023-05-02T12:02:39;19.90;52.60
5868;DHT22;2960;49.142;7.768;2023-05-02T12:05:09;19.90;52.30
5868;DHT22;2960;49.142;7.768;2023-05-02T12:07:37;20.00;52.30
5868;DHT22;2960;49.142;7.768;2023-05-02T12:10:08;20.00;52.30
5868;DHT22;2960;49.142;7.768;2023-05-02T12:12:36;20.00;52.20
5868;DHT22;2960;49.142;7.768;2023-05-02T12:15:04;20.00;52.10
5868;DHT22;2960;49.142;7.768;2023-05-02T12:17:32;20.00;51.80
5868;DHT22;2960;49.142;7.768;2023-05-02T12:20:03;20.00;51.60
5868;DHT22;2960;49.142;7.768;2023-05-02T12:22:31;20.00;51.70
5868;DHT22;2960;49.142;7.768;2023-05-02T12:24:58;19.90;51.70
5868;DHT22;2960;49.142;7.768;2023-05-02T12:27:27;19.90;51.40
5868;DHT22;2960;49.142;7.768;2023-05-02T12:29:54;19.90;51.20
5868;DHT22;2960;49.142;7.768;2023-05-02T12:32:27;19.90;51.20
5868;DHT22;2960;49.142;7.768;2023-05-02T12:34:55;19.90;50.80
5868;DHT22;2960;49.142;7.768;2023-05-02T12:37:23;19.90;50.80
5868;DHT22;2960;49.142;7.768;2023-05-02T12:39:52;19.90;50.70
5868;DHT22;2960;49.142;7.768;2023-05-02T12:42:21;19.90;50.70
5868;DHT22;2960;49.142;7.768;2023-05-02T12:44:51;19.80;50.30
5868;DHT22;2960;49.142;7.768;2023-05-02T12:47:19;19.80;50.40
5868;DHT22;2960;49.142;7.768;2023-05-02T12:49:50;19.80;50.20
5868;DHT22;2960;49.142;7.768;2023-05-02T12:52:47;19.80;50.20
5868;DHT22;2960;49.142;7.768;2023-05-02T12:55:16;19.80;50.20
5868;DHT22;2960;49.142;7.768;2023-05-02T12:57:43;19.80;50.10
5868;DHT22;2960;49.142;7.768;2023-05-02T13:00:16;19.80;50.70
5868;DHT22;2960;49.142;7.768;2023-05-02T13:02:43;19.90;50.00
5868;DHT22;2960;49.142;7.768;2023-05-02T13:05:14;19.90;49.90
5868;DHT22;2960;49.142;7.768;2023-05-02T13:07:41;20.00;49.80
5868;DHT22;2960;49.142;7.768;2023-05-02T13:10:09;20.00;49.80
5868;DHT22;2960;49.142;7.768;2023-05-02T13:12:36;20.00;49.80
5868;DHT22;2960;49.142;7.768;2023-05-02T13:15:05;20.10;49.60
5868;DHT22;2960;49.142;7.768;2023-05-02T13:17:34;20.10;49.40
5868;DHT22;2960;49.142;7.768;2023-05-02T13:20:02;20.10;49.10
5868;DHT22;2960;49.142;7.768;2023-05-02T13:22:29;20.10;49.10
5868;DHT22;2960;49.142;7.768;2023-05-02T13:24:56;20.10;49.10
5868;DHT22;2960;49.142;7.768;2023-05-02T13:27:24;20.20;49.10
5868;DHT22;2960;49.142;7.768;2023-05-02T13:29:52;20.20;48.90
5868;DHT22;2960;49.142;7.768;2023-05-02T13:32:19;20.30;48.80
5868;DHT22;2960;49.142;7.768;2023-05-02T13:34:48;20.30;48.50
5868;DHT22;2960;49.142;7.768;2023-05-02T13:37:16;20.30;48.30
5868;DHT22;2960;49.142;7.768;2023-05-02T13:39:43;20.30;48.10
5868;DHT22;2960;49.142;7.768;2023-05-02T13:42:12;20.30;48.80
5868;DHT22;2960;49.142;7.768;2023-05-02T13:44:40;20.20;48.20
5868;DHT22;2960;49.142;7.768;2023-05-02T13:47:07;20.20;48.10
5868;DHT22;2960;49.142;7.768;2023-05-02T13:49:34;20.20;48.20
5868;DHT22;2960;49.142;7.768;2023-05-02T13:52:02;20.20;48.10
5868;DHT22;2960;49.142;7.768;2023-05-02T13:54:30;20.20;47.90
5868;DHT22;2960;49.142;7.768;2023-05-02T13:56:57;20.20;47.80
5868;DHT22;2960;49.142;7.768;2023-05-02T13:59:24;20.30;47.50
5868;DHT22;2960;49.142;7.768;2023-05-02T14:01:54;20.30;47.40
5868;DHT22;2960;49.142;7.768;2023-05-02T14:04:21;20.30;47.10
5868;DHT22;2960;49.142;7.768;2023-05-02T14:06:48;20.30;46.50
5868;DHT22;2960;49.142;7.768;2023-05-02T14:09:16;20.30;46.30
5868;DHT22;2960;49.142;7.768;2023-05-02T14:11:43;20.20;46.00
5868;DHT22;2960;49.142;7.768;2023-05-02T14:14:11;20.20;45.70
5868;DHT22;2960;49.142;7.768;2023-05-02T14:16:39;20.10;45.40
5868;DHT22;2960;49.142;7.768;2023-05-02T14:19:06;20.10;45.30
5868;DHT22;2960;49.142;7.768;2023-05-02T14:21:33;20.00;45.40
5868;DHT22;2960;49.142;7.768;2023-05-02T14:24:01;20.00;45.40
5868;DHT22;2960;49.142;7.768;2023-05-02T14:26:30;20.00;45.50
5868;DHT22;2960;49.142;7.768;2023-05-02T14:28:57;19.90;45.50
5868;DHT22;2960;49.142;7.768;2023-05-02T14:31:25;19.90;45.60
5868;DHT22;2960;49.142;7.768;2023-05-02T14:33:52;19.90;45.50
5868;DHT22;2960;49.142;7.768;2023-05-02T14:36:19;19.80;45.30
5868;DHT22;2960;49.142;7.768;2023-05-02T14:38:46;19.70;45.10
5868;DHT22;2960;49.142;7.768;2023-05-02T14:41:14;19.70;45.20
5868;DHT22;2960;49.142;7.768;2023-05-02T14:43:43;19.70;45.30
5868;DHT22;2960;49.142;7.768;2023-05-02T14:46:10;19.70;44.80
5868;DHT22;2960;49.142;7.768;2023-05-02T14:48:37;19.60;44.90
5868;DHT22;2960;49.142;7.768;2023-05-02T14:51:04;19.60;44.90
5868;DHT22;2960;49.142;7.768;2023-05-02T14:53:32;19.60;44.80
5868;DHT22;2960;49.142;7.768;2023-05-02T14:55:59;19.70;44.80
5868;DHT22;2960;49.142;7.768;2023-05-02T14:58:26;19.70;45.00
5868;DHT22;2960;49.142;7.768;2023-05-02T15:00:54;19.70;44.70
5868;DHT22;2960;49.142;7.768;2023-05-02T15:03:22;19.70;44.50
5868;DHT22;2960;49.142;7.768;2023-05-02T15:05:49;19.80;45.20
5868;DHT22;2960;49.142;7.768;2023-05-02T15:08:16;19.80;44.60
5868;DHT22;2960;49.142;7.768;2023-05-02T15:10:44;19.80;44.30
5868;DHT22;2960;49.142;7.768;2023-05-02T15:13:11;19.80;44.20
5868;DHT22;2960;49.142;7.768;2023-05-02T15:15:38;19.80;44.20
5868;DHT22;2960;49.142;7.768;2023-05-02T15:18:07;19.80;43.90
5868;DHT22;2960;49.142;7.768;2023-05-02T15:20:34;19.70;43.70
5868;DHT22;2960;49.142;7.768;2023-05-02T15:23:01;19.60;43.60
5868;DHT22;2960;49.142;7.768;2023-05-02T15:25:29;19.60;43.80
5868;DHT22;2960;49.142;7.768;2023-05-02T15:27:57;19.50;43.70
5868;DHT22;2960;49.142;7.768;2023-05-02T15:30:24;19.40;43.70
5868;DHT22;2960;49.142;7.768;2023-05-02T15:32:51;19.40;43.90
5868;DHT22;2960;49.142;7.768;2023-05-02T15:35:20;19.40;44.10
5868;DHT22;2960;49.142;7.768;2023-05-02T15:37:47;19.40;44.10
5868;DHT22;2960;49.142;7.768;2023-05-02T15:40:14;19.30;44.00
5868;DHT22;2960;49.142;7.768;2023-05-02T15:42:41;19.30;44.00
5868;DHT22;2960;49.142;7.768;2023-05-02T15:45:10;19.30;44.20
5868;DHT22;2960;49.142;7.768;2023-05-02T15:47:39;19.30;44.30
5868;DHT22;2960;49.142;7.768;2023-05-02T15:50:06;19.30;44.30
5868;DHT22;2960;49.142;7.768;2023-05-02T15:52:36;19.20;44.40
5868;DHT22;2960;49.142;7.768;2023-05-02T15:55:04;19.20;44.50
5868;DHT22;2960;49.142;7.768;2023-05-02T15:57:31;19.20;44.60
5868;DHT22;2960;49.142;7.768;2023-05-02T15:59:58;19.20;44.60
5868;DHT22;2960;49.142;7.768;2023-05-02T16:02:25;19.20;44.60
5868;DHT22;2960;49.142;7.768;2023-05-02T16:04:52;19.20;44.70
5868;DHT22;2960;49.142;7.768;2023-05-02T16:07:19;19.20;45.40
5868;DHT22;2960;49.142;7.768;2023-05-02T16:09:48;19.20;45.50
5868;DHT22;2960;49.142;7.768;2023-05-02T16:12:15;19.20;44.90
5868;DHT22;2960;49.142;7.768;2023-05-02T16:14:42;19.20;45.50
5868;DHT22;2960;49.142;7.768;2023-05-02T16:17:09;19.20;44.80
5868;DHT22;2960;49.142;7.768;2023-05-02T16:19:36;19.20;44.80